Time;durP1;ratioP1;P1;durP2;ratioP2;P2;SDS_P1;SDS_P2;PMS_P1;PMS_P2;Temp;Humidity;BMP_temperature;BMP_pressure;BME280_temperature;BME280_humidity;BME280_pressure;Samples;Min_cycle;Max_cycle;Signal;HPM_P1;HPM_P2
2022/07/24 00:00:16;;;;;;;26.17;16.17;;;19.30;99.90;;;;;;4841165;29;20050;-74
2022/07/24 00:02:42;;;;;;;23.83;15.52;;;19.20;99.90;;;;;;4839611;29;20477;-74
2022/07/24 00:05:08;;;;;;;23.48;16.17;;;19.30;99.90;;;;;;4840270;29;20026;-74
2022/07/24 00:07:36;;;;;;;21.75;15.23;;;19.40;99.90;;;;;;4840002;29;20037;-74
2022/07/24 00:10:06;;;;;;;22.65;15.95;;;19.40;99.90;;;;;;4823702;29;20042;-74
2022/07/24 00:12:32;;;;;;;23.90;16.45;;;19.40;99.90;;;;;;4822041;29;20374;-74
2022/07/24 00:14:58;;;;;;;24.92;16.52;;;19.40;99.90;;;;;;4839680;29;20054;-75
2022/07/24 00:17:24;;;;;;;23.13;15.43;;;19.40;99.90;;;;;;4835320;29;20140;-74
2022/07/24 00:19:49;;;;;;;26.55;16.38;;;19.40;99.90;;;;;;4840720;29;20418;-76
2022/07/24 00:22:15;;;;;;;28.45;16.33;;;19.30;99.90;;;;;;4838387;29;20053;-75
2022/07/24 00:24:41;;;;;;;27.05;16.48;;;19.10;99.90;;;;;;4840523;29;20049;-74
2022/07/24 00:27:07;;;;;;;25.13;15.48;;;19.10;99.90;;;;;;4837123;29;20071;-74
2022/07/24 00:29:32;;;;;;;26.02;17.13;;;19.10;99.90;;;;;;4839068;29;20094;-74
2022/07/24 00:31:58;;;;;;;30.50;16.02;;;19.10;99.90;;;;;;4838420;29;20045;-75
2022/07/24 00:34:24;;;;;;;24.02;15.93;;;19.10;99.90;;;;;;4840165;29;20037;-76
2022/07/24 00:36:49;;;;;;;36.83;16.38;;;19.00;99.90;;;;;;4839657;29;20477;-76
2022/07/24 00:39:15;;;;;;;24.42;16.45;;;18.90;99.90;;;;;;4838246;29;20037;-75
2022/07/24 00:41:41;;;;;;;24.98;15.85;;;18.80;99.90;;;;;;4838681;29;20519;-74
2022/07/24 00:44:13;;;;;;;24.85;16.83;;;18.80;99.90;;;;;;4839408;29;20418;-75
2022/07/24 00:46:42;;;;;;;24.25;16.42;;;18.80;99.90;;;;;;4839245;29;20706;-75
2022/07/24 00:49:11;;;;;;;25.52;16.58;;;18.80;99.90;;;;;;4838543;29;20041;-74
2022/07/24 00:51:40;;;;;;;25.60;16.73;;;18.90;99.90;;;;;;4839743;29;20486;-74
2022/07/24 00:54:06;;;;;;;26.83;16.42;;;19.00;99.90;;;;;;4838582;29;20030;-75
2022/07/24 00:56:32;;;;;;;28.17;17.17;;;19.10;99.90;;;;;;4838660;29;20374;-75
2022/07/24 00:59:00;;;;;;;25.42;16.90;;;19.10;99.90;;;;;;4839258;29;20041;-75
2022/07/24 01:01:25;;;;;;;28.50;17.63;;;19.10;99.90;;;;;;4837951;29;20052;-75
2022/07/24 01:03:51;;;;;;;26.75;17.23;;;19.10;99.90;;;;;;4839843;29;20034;-75
2022/07/24 01:06:17;;;;;;;26.63;17.15;;;19.00;99.90;;;;;;4837932;29;20030;-74
2022/07/24 01:08:43;;;;;;;24.95;17.20;;;18.90;99.90;;;;;;4840098;29;20086;-74
2022/07/24 01:11:09;;;;;;;25.55;17.20;;;18.80;99.90;;;;;;4837827;29;20042;-74
2022/07/24 01:13:35;;;;;;;25.20;17.10;;;18.70;99.90;;;;;;4839484;29;20038;-75
2022/07/24 01:16:01;;;;;;;33.67;17.20;;;18.70;99.90;;;;;;4836253;29;20438;-76
2022/07/24 01:18:27;;;;;;;24.45;16.98;;;18.60;99.90;;;;;;4838353;29;20042;-75
2022/07/24 01:20:53;;;;;;;28.58;16.80;;;18.50;99.90;;;;;;4838329;29;20045;-74
2022/07/24 01:23:18;;;;;;;25.20;17.20;;;18.50;99.90;;;;;;4839009;29;20041;-75
2022/07/24 01:25:44;;;;;;;26.45;17.30;;;18.60;99.90;;;;;;4839831;29;20590;-74
2022/07/24 01:28:10;;;;;;;30.85;17.45;;;18.50;99.90;;;;;;4837590;29;20534;-75
2022/07/24 01:30:35;;;;;;;23.98;16.50;;;18.50;99.90;;;;;;4838710;29;20430;-75
2022/07/24 01:33:01;;;;;;;26.73;16.73;;;18.40;99.90;;;;;;4821206;29;20174;-75
2022/07/24 01:35:27;;;;;;;25.65;17.15;;;18.40;99.90;;;;;;4839078;29;20071;-74
2022/07/24 01:37:53;;;;;;;28.23;17.70;;;18.40;99.90;;;;;;4838257;29;20041;-74
2022/07/24 01:40:20;;;;;;;25.10;16.58;;;18.40;99.90;;;;;;4838137;29;20046;-75
2022/07/24 01:42:45;;;;;;;27.42;16.77;;;18.40;99.90;;;;;;4838126;29;20034;-75
2022/07/24 01:45:11;;;;;;;25.98;17.40;;;18.50;99.90;;;;;;4837144;29;20033;-75
2022/07/24 01:47:37;;;;;;;29.13;17.40;;;18.40;99.90;;;;;;4838057;29;20042;-75
2022/07/24 01:50:03;;;;;;;26.95;16.67;;;18.40;99.90;;;;;;4821835;29;20058;-75
2022/07/24 01:52:29;;;;;;;26.35;17.10;;;18.20;99.90;;;;;;4821540;29;20046;-75
2022/07/24 01:54:55;;;;;;;26.10;17.55;;;18.10;99.90;;;;;;4835481;29;20034;-76
2022/07/24 01:57:20;;;;;;;24.90;17.10;;;18.00;99.90;;;;;;4835551;29;20038;-75
2022/07/24 01:59:46;;;;;;;27.30;16.85;;;18.00;99.90;;;;;;4839125;29;20041;-74
2022/07/24 02:02:12;;;;;;;26.55;17.48;;;18.00;99.90;;;;;;4837660;29;20040;-74
2022/07/24 02:04:38;;;;;;;26.75;17.67;;;18.00;99.90;;;;;;4838509;29;20037;-76
2022/07/24 02:07:04;;;;;;;25.23;16.45;;;17.90;99.90;;;;;;4837350;29;20038;-76
2022/07/24 02:09:29;;;;;;;27.27;17.42;;;17.80;99.90;;;;;;4839068;29;20363;-75
2022/07/24 02:11:55;;;;;;;26.13;16.95;;;17.80;99.90;;;;;;4837065;29;20471;-73
2022/07/24 02:14:21;;;;;;;25.45;16.70;;;17.80;99.90;;;;;;4837586;29;20062;-75
2022/07/24 02:16:46;;;;;;;27.02;17.02;;;17.80;99.90;;;;;;4838335;29;20042;-76
2022/07/24 02:19:12;;;;;;;28.50;17.73;;;17.80;99.90;;;;;;4837913;29;20037;-76
2022/07/24 02:21:38;;;;;;;28.70;17.60;;;17.80;99.90;;;;;;4837995;29;20033;-75
2022/07/24 02:24:04;;;;;;;28.95;17.75;;;17.90;99.90;;;;;;4836914;29;20587;-76
2022/07/24 02:26:30;;;;;;;34.40;18.77;;;17.90;99.90;;;;;;4837613;29;20050;-75
2022/07/24 02:28:55;;;;;;;29.70;18.80;;;18.00;99.90;;;;;;4838037;29;20045;-76
2022/07/24 02:31:21;;;;;;;29.73;18.02;;;18.00;99.90;;;;;;4836810;29;20073;-75
2022/07/24 02:33:47;;;;;;;31.35;18.20;;;17.90;99.90;;;;;;4835960;29;20041;-75
2022/07/24 02:36:13;;;;;;;29.83;17.98;;;17.80;99.90;;;;;;4834108;29;20050;-75
2022/07/24 02:38:39;;;;;;;27.92;17.52;;;17.60;99.90;;;;;;4821550;29;20049;-75
2022/07/24 02:41:05;;;;;;;27.58;18.10;;;17.70;99.90;;;;;;4834018;29;20397;-75
2022/07/24 02:43:30;;;;;;;27.67;17.90;;;17.70;99.90;;;;;;4838186;29;20030;-74
2022/07/24 02:45:56;;;;;;;31.08;18.50;;;17.60;99.90;;;;;;4837059;29;20534;-74
2022/07/24 02:48:22;;;;;;;31.52;17.83;;;17.60;99.90;;;;;;4837299;29;20491;-74
2022/07/24 02:50:47;;;;;;;27.95;17.42;;;17.50;99.90;;;;;;4823791;29;20419;-75
2022/07/24 02:53:13;;;;;;;29.40;18.95;;;17.60;99.90;;;;;;4843068;29;20041;-75
2022/07/24 02:55:39;;;;;;;28.70;17.45;;;17.50;99.90;;;;;;4841372;29;20496;-76
2022/07/24 02:58:04;;;;;;;26.77;18.05;;;17.30;99.90;;;;;;4840483;29;20065;-75
2022/07/24 03:00:30;;;;;;;27.00;17.38;;;17.30;99.90;;;;;;4840444;29;20538;-75
2022/07/24 03:02:56;;;;;;;27.63;17.73;;;17.30;99.90;;;;;;4840871;29;20038;-75
2022/07/24 03:05:22;;;;;;;30.58;19.23;;;17.20;99.90;;;;;;4840829;29;20164;-75
2022/07/24 03:07:48;;;;;;;30.20;18.38;;;17.20;99.90;;;;;;4841749;29;20553;-75
2022/07/24 03:10:14;;;;;;;28.02;17.88;;;17.20;99.90;;;;;;4839307;29;20061;-75
2022/07/24 03:12:40;;;;;;;36.50;19.83;;;17.20;99.90;;;;;;4841476;29;20045;-76
2022/07/24 03:15:07;;;;;;;26.98;18.70;;;17.30;99.90;;;;;;4840056;29;20042;-76
2022/07/24 03:17:33;;;;;;;28.33;18.15;;;17.30;99.90;;;;;;4841165;29;20030;-75
2022/07/24 03:19:59;;;;;;;35.03;17.40;;;17.30;99.90;;;;;;4840620;29;20034;-75
2022/07/24 03:22:24;;;;;;;30.65;18.83;;;17.30;99.90;;;;;;4839898;29;20059;-75
2022/07/24 03:24:50;;;;;;;28.77;18.15;;;17.30;99.90;;;;;;4840377;29;20526;-74
2022/07/24 03:27:16;;;;;;;30.98;17.70;;;17.20;99.90;;;;;;4841046;29;20034;-76
2022/07/24 03:29:41;;;;;;;28.45;18.42;;;17.20;99.90;;;;;;4840662;29;20050;-74
2022/07/24 03:32:07;;;;;;;26.88;17.67;;;17.20;99.90;;;;;;4841129;29;20680;-75
2022/07/24 03:34:33;;;;;;;31.88;17.50;;;17.10;99.90;;;;;;4839862;29;20069;-75
2022/07/24 03:36:58;;;;;;;26.77;18.20;;;17.20;99.90;;;;;;4841776;29;20090;-76
2022/07/24 03:39:24;;;;;;;28.30;17.65;;;17.20;99.90;;;;;;4838553;29;20034;-76
2022/07/24 03:41:50;;;;;;;29.98;18.23;;;17.20;99.90;;;;;;4841612;29;20485;-75
2022/07/24 03:44:15;;;;;;;29.90;16.92;;;17.20;99.90;;;;;;4839088;29;20397;-75
2022/07/24 03:46:41;;;;;;;26.95;16.55;;;17.20;99.90;;;;;;4841401;29;20038;-75
2022/07/24 03:49:07;;;;;;;26.73;17.45;;;17.20;99.90;;;;;;4838832;29;20074;-75
2022/07/24 03:51:34;;;;;;;28.15;16.98;;;17.10;99.90;;;;;;4841438;29;20038;-75
2022/07/24 03:54:01;;;;;;;28.33;18.25;;;16.90;99.90;;;;;;4838640;29;20065;-75
2022/07/24 03:56:28;;;;;;;28.20;17.83;;;16.90;99.90;;;;;;4841035;29;20033;-75
2022/07/24 03:58:54;;;;;;;29.80;18.50;;;16.90;99.90;;;;;;4839248;29;20695;-75
2022/07/24 04:01:20;;;;;;;29.42;18.45;;;16.80;99.90;;;;;;4839389;29;20105;-75
2022/07/24 04:03:46;;;;;;;32.03;18.15;;;16.70;99.90;;;;;;4840656;29;20034;-75
2022/07/24 04:06:12;;;;;;;29.10;18.95;;;16.80;99.90;;;;;;4837646;29;20041;-75
2022/07/24 04:08:38;;;;;;;27.63;18.30;;;16.80;99.90;;;;;;4822473;29;20046;-75
2022/07/24 04:11:03;;;;;;;28.92;17.73;;;16.90;99.90;;;;;;4838639;29;20045;-75
2022/07/24 04:13:31;;;;;;;27.73;17.70;;;16.70;99.90;;;;;;4839774;29;20082;-75
2022/07/24 04:15:57;;;;;;;28.05;18.65;;;16.70;99.90;;;;;;4839263;29;20033;-74
2022/07/24 04:18:23;;;;;;;31.30;19.15;;;16.70;99.90;;;;;;4839711;29;20045;-74
2022/07/24 04:20:49;;;;;;;32.78;18.42;;;16.80;99.90;;;;;;4840236;29;20041;-76
2022/07/24 04:23:15;;;;;;;30.30;17.88;;;16.80;99.90;;;;;;4839098;29;20038;-76
2022/07/24 04:25:41;;;;;;;27.42;16.55;;;16.80;99.90;;;;;;4839125;29;20046;-75
2022/07/24 04:28:06;;;;;;;25.45;16.52;;;16.90;99.90;;;;;;4837566;29;20456;-75
2022/07/24 04:30:32;;;;;;;31.13;17.60;;;16.90;99.90;;;;;;4832551;29;20038;-75
2022/07/24 04:32:58;;;;;;;25.70;17.20;;;16.90;99.90;;;;;;4832787;29;20045;-75
2022/07/24 04:35:24;;;;;;;29.60;18.20;;;16.90;99.90;;;;;;4838267;29;20687;-74
2022/07/24 04:37:50;;;;;;;29.77;18.30;;;17.00;99.90;;;;;;4839724;29;20053;-75
2022/07/24 04:40:16;;;;;;;31.48;19.02;;;17.00;99.90;;;;;;4838999;29;20054;-75
2022/07/24 04:42:41;;;;;;;31.67;18.00;;;17.00;99.90;;;;;;4840076;29;20060;-75
2022/07/24 04:45:09;;;;;;;31.42;18.95;;;17.00;99.90;;;;;;4840496;29;20033;-75
2022/07/24 04:47:35;;;;;;;26.40;18.35;;;17.20;99.90;;;;;;4858981;29;20037;-75
2022/07/24 04:50:01;;;;;;;32.28;18.77;;;17.50;99.90;;;;;;4839559;29;20186;-75
2022/07/24 04:52:27;;;;;;;31.10;19.25;;;17.70;99.90;;;;;;4824772;29;20034;-75
2022/07/24 04:54:52;;;;;;;30.45;17.92;;;18.00;99.90;;;;;;4837879;29;20098;-75
2022/07/24 04:57:18;;;;;;;28.77;17.58;;;18.10;99.90;;;;;;4836665;29;20038;-75
2022/07/24 04:59:44;;;;;;;26.83;18.05;;;18.20;99.90;;;;;;4838500;29;20121;-75
2022/07/24 05:02:09;;;;;;;26.55;17.90;;;18.10;99.90;;;;;;4839189;29;20033;-76
2022/07/24 05:04:35;;;;;;;32.97;17.77;;;18.10;99.90;;;;;;4839896;29;20030;-75
2022/07/24 05:07:02;;;;;;;27.80;18.23;;;18.10;99.90;;;;;;4840033;29;20126;-75
2022/07/24 05:09:28;;;;;;;31.10;18.42;;;18.30;99.90;;;;;;4836733;29;20274;-75
2022/07/24 05:11:54;;;;;;;27.58;17.60;;;18.40;99.90;;;;;;4837608;29;20037;-75
2022/07/24 05:14:19;;;;;;;30.60;19.20;;;18.40;99.90;;;;;;4837462;29;20097;-76
2022/07/24 05:16:45;;;;;;;30.08;18.08;;;18.30;99.90;;;;;;4838308;29;20394;-76
2022/07/24 05:19:11;;;;;;;27.63;18.23;;;18.30;99.90;;;;;;4836034;29;20036;-76
2022/07/24 05:21:36;;;;;;;28.50;19.08;;;18.40;99.90;;;;;;4839886;29;20030;-76
2022/07/24 05:24:02;;;;;;;30.42;18.33;;;18.60;99.90;;;;;;4839105;29;20089;-77
2022/07/24 05:26:31;;;;;;;30.55;17.83;;;18.70;99.90;;;;;;4838841;29;20190;-76
2022/07/24 05:29:01;;;;;;;29.20;18.77;;;18.80;99.90;;;;;;4839565;29;20038;-76
2022/07/24 05:31:27;;;;;;;29.02;18.13;;;18.80;99.90;;;;;;4838766;29;20098;-76
2022/07/24 05:33:53;;;;;;;28.00;17.50;;;18.80;99.90;;;;;;4838313;29;20037;-76
2022/07/24 05:36:20;;;;;;;30.13;18.65;;;18.90;99.90;;;;;;4838868;29;20044;-76
2022/07/24 05:38:45;;;;;;;29.13;18.52;;;18.90;99.90;;;;;;4838630;29;20413;-79
2022/07/24 05:41:12;;;;;;;33.72;19.73;;;19.00;99.90;;;;;;4836277;29;20042;-76
2022/07/24 05:43:38;;;;;;;29.27;19.40;;;19.10;99.90;;;;;;4838680;29;20042;-76
2022/07/24 05:46:04;;;;;;;30.50;18.65;;;19.30;99.90;;;;;;4837265;29;20046;-77
2022/07/24 05:48:30;;;;;;;28.67;18.48;;;19.40;99.90;;;;;;4837606;29;20048;-75
2022/07/24 05:50:56;;;;;;;30.88;17.50;;;19.30;99.90;;;;;;4838659;29;20152;-74
2022/07/24 05:53:22;;;;;;;25.55;17.65;;;19.40;99.90;;;;;;4834973;29;20086;-76
2022/07/24 05:55:48;;;;;;;31.50;18.48;;;19.60;99.90;;;;;;4837788;29;20041;-76
2022/07/24 05:58:14;;;;;;;28.70;18.15;;;19.80;99.90;;;;;;4833600;29;20041;-75
2022/07/24 06:00:40;;;;;;;26.23;17.88;;;19.80;99.90;;;;;;4837965;29;20052;-76
2022/07/24 06:03:05;;;;;;;28.15;18.70;;;20.00;99.90;;;;;;4839049;29;20033;-75
2022/07/24 06:05:31;;;;;;;28.60;18.05;;;20.20;99.90;;;;;;4838498;29;20030;-75
2022/07/24 06:07:57;;;;;;;31.77;19.08;;;20.40;99.90;;;;;;4838413;29;20443;-75
2022/07/24 06:10:23;;;;;;;29.55;18.42;;;20.60;99.90;;;;;;4838307;29;20052;-75
2022/07/24 06:12:48;;;;;;;30.80;19.05;;;20.90;99.90;;;;;;4822928;29;20086;-76
2022/07/24 06:15:14;;;;;;;30.83;18.45;;;20.90;99.90;;;;;;4838102;29;20034;-76
2022/07/24 06:17:41;;;;;;;23.88;16.83;;;21.10;99.90;;;;;;4839121;29;20033;-75
2022/07/24 06:20:08;;;;;;;28.42;17.80;;;21.30;99.90;;;;;;4822435;29;20469;-75
2022/07/24 06:22:34;;;;;;;25.95;17.90;;;21.50;99.90;;;;;;4837638;29;20050;-75
2022/07/24 06:24:59;;;;;;;27.02;17.50;;;21.70;99.90;;;;;;4838700;29;20060;-75
2022/07/24 06:27:25;;;;;;;27.13;17.80;;;21.80;99.90;;;;;;4837909;29;20475;-75
2022/07/24 06:29:51;;;;;;;29.85;19.35;;;21.90;99.90;;;;;;4838572;29;20038;-75
2022/07/24 06:32:16;;;;;;;28.23;17.77;;;21.90;99.90;;;;;;4837853;29;20105;-75
2022/07/24 06:34:43;;;;;;;28.70;18.58;;;21.90;99.90;;;;;;4839091;29;20088;-75
2022/07/24 06:37:08;;;;;;;34.88;18.48;;;21.90;99.90;;;;;;4837734;29;20477;-76
2022/07/24 06:39:34;;;;;;;25.75;17.38;;;22.00;99.90;;;;;;4840403;29;20034;-76
2022/07/24 06:42:00;;;;;;;24.05;17.98;;;22.10;99.90;;;;;;4838511;29;20041;-76
2022/07/24 06:44:25;;;;;;;24.27;16.77;;;22.30;99.90;;;;;;4837769;29;20042;-75
2022/07/24 06:46:51;;;;;;;27.70;17.55;;;22.50;99.90;;;;;;4838785;29;20040;-75
2022/07/24 06:49:17;;;;;;;25.48;16.25;;;22.60;99.90;;;;;;4820995;29;20066;-75
2022/07/24 06:51:43;;;;;;;23.40;16.73;;;22.80;99.90;;;;;;4837739;29;20046;-75
2022/07/24 06:54:09;;;;;;;23.13;16.20;;;22.80;99.90;;;;;;4838606;29;20167;-76
2022/07/24 06:56:35;;;;;;;26.85;17.05;;;23.00;99.90;;;;;;4837898;29;20116;-74
2022/07/24 06:59:00;;;;;;;33.90;17.80;;;23.00;99.90;;;;;;4822053;29;20045;-76
2022/07/24 07:01:26;;;;;;;23.52;16.80;;;23.10;99.90;;;;;;4837898;29;20479;-76
2022/07/24 07:03:53;;;;;;;25.00;16.75;;;23.20;99.90;;;;;;4837455;29;20108;-73
2022/07/24 07:06:19;;;;;;;26.67;16.92;;;23.30;99.90;;;;;;4837885;29;20054;-73
2022/07/24 07:08:45;;;;;;;27.73;17.02;;;23.40;99.90;;;;;;4838480;29;20066;-73
2022/07/24 07:11:11;;;;;;;25.67;16.20;;;23.50;99.90;;;;;;4838505;29;20072;-75
2022/07/24 07:13:36;;;;;;;27.90;16.88;;;23.50;99.90;;;;;;4834086;29;20026;-75
2022/07/24 07:16:02;;;;;;;27.77;17.08;;;23.50;99.90;;;;;;4820315;29;20034;-73
2022/07/24 07:18:28;;;;;;;27.45;17.60;;;23.60;99.90;;;;;;4836859;29;20398;-75
2022/07/24 07:20:53;;;;;;;24.02;16.55;;;23.60;99.90;;;;;;4838044;29;20074;-75
2022/07/24 07:23:23;;;;;;;28.33;17.80;;;23.70;99.90;;;;;;4836912;29;20089;-76
2022/07/24 07:25:49;;;;;;;24.58;17.23;;;23.80;99.90;;;;;;4837768;29;20061;-73
2022/07/24 07:28:16;;;;;;;25.40;17.02;;;23.80;99.90;;;;;;4836175;29;20462;-78
2022/07/24 07:30:42;;;;;;;23.35;16.02;;;23.90;99.90;;;;;;4837539;29;20124;-75
2022/07/24 07:33:07;;;;;;;27.25;18.05;;;24.10;99.90;;;;;;4837234;29;20178;-75
2022/07/24 07:35:33;;;;;;;31.05;17.67;;;24.20;99.90;;;;;;4834437;29;20029;-75
2022/07/24 07:37:59;;;;;;;24.95;16.00;;;24.30;99.90;;;;;;4841169;29;20462;-73
2022/07/24 07:40:25;;;;;;;25.40;17.50;;;24.50;99.90;;;;;;4840275;29;20030;-73
2022/07/24 07:42:51;;;;;;;23.30;16.02;;;24.60;99.90;;;;;;4840887;29;20097;-73
2022/07/24 07:45:16;;;;;;;25.58;16.75;;;24.70;99.90;;;;;;4823811;29;20696;-76
2022/07/24 07:47:42;;;;;;;28.50;15.90;;;24.70;99.90;;;;;;4840378;29;20036;-75
2022/07/24 07:50:09;;;;;;;24.92;17.02;;;24.80;99.90;;;;;;4840624;29;20797;-73
2022/07/24 07:52:35;;;;;;;24.92;15.90;;;24.80;99.90;;;;;;4838232;29;20680;-73
2022/07/24 07:55:02;;;;;;;24.55;15.93;;;25.00;99.90;;;;;;4838988;29;20042;-74
2022/07/24 07:57:27;;;;;;;23.27;16.00;;;25.00;99.90;;;;;;4838883;29;20033;-74
2022/07/24 07:59:53;;;;;;;25.23;15.70;;;25.00;99.90;;;;;;4841289;29;20034;-73
2022/07/24 08:02:19;;;;;;;25.35;15.63;;;25.10;99.90;;;;;;4838943;29;20485;-75
2022/07/24 08:04:44;;;;;;;23.05;15.30;;;25.10;99.90;;;;;;4841427;29;20044;-74
2022/07/24 08:07:10;;;;;;;21.58;14.63;;;25.10;99.90;;;;;;4841193;29;20030;-74
2022/07/24 08:09:37;;;;;;;25.90;15.40;;;25.10;99.90;;;;;;4840390;29;20037;-74
2022/07/24 08:12:04;;;;;;;22.23;15.68;;;25.30;99.90;;;;;;4840426;29;20389;-73
2022/07/24 08:14:29;;;;;;;20.95;15.00;;;25.50;99.90;;;;;;4840376;29;20034;-73
2022/07/24 08:16:55;;;;;;;22.70;14.82;;;25.70;99.90;;;;;;4834920;29;20036;-75
2022/07/24 08:19:21;;;;;;;24.15;15.40;;;25.90;99.90;;;;;;4840209;29;20102;-74
2022/07/24 08:21:46;;;;;;;20.50;14.85;;;25.90;99.90;;;;;;4839219;29;20099;-73
2022/07/24 08:24:12;;;;;;;27.23;15.68;;;25.90;99.90;;;;;;4840318;29;20133;-74
2022/07/24 08:26:38;;;;;;;23.58;15.13;;;25.90;99.90;;;;;;4838774;29;20098;-73
2022/07/24 08:29:05;;;;;;;22.92;15.35;;;26.00;99.90;;;;;;4837663;29;20052;-75
2022/07/24 08:31:31;;;;;;;21.35;15.00;;;26.10;99.90;;;;;;4821657;29;20038;-75
2022/07/24 08:33:57;;;;;;;21.55;15.40;;;26.10;99.90;;;;;;4832557;29;20079;-73
2022/07/24 08:36:22;;;;;;;19.75;15.07;;;26.10;99.90;;;;;;4839826;29;20094;-74
2022/07/24 08:38:48;;;;;;;21.95;15.68;;;26.10;99.90;;;;;;4841101;29;20065;-75
2022/07/24 08:41:14;;;;;;;19.98;13.90;;;26.10;99.90;;;;;;4840939;29;20132;-75
2022/07/24 08:43:40;;;;;;;25.40;14.50;;;26.10;99.90;;;;;;4839836;29;20030;-73
2022/07/24 08:46:11;;;;;;;19.95;13.63;;;26.40;99.90;;;;;;4840165;29;20496;-75
2022/07/24 08:48:42;;;;;;;23.20;14.73;;;26.50;99.90;;;;;;4838697;29;20041;-75
2022/07/24 08:51:07;;;;;;;19.00;14.38;;;26.80;99.90;;;;;;4840254;29;20447;-74
2022/07/24 08:53:33;;;;;;;21.08;14.45;;;26.90;99.90;;;;;;4839257;29;20034;-73
2022/07/24 08:55:59;;;;;;;22.67;14.18;;;27.10;99.90;;;;;;4838991;29;20084;-74
2022/07/24 08:58:25;;;;;;;21.20;13.85;;;27.10;99.90;;;;;;4839604;29;20036;-75
2022/07/24 09:00:51;;;;;;;22.70;13.55;;;27.10;99.90;;;;;;4840052;29;20069;-74
2022/07/24 09:03:16;;;;;;;15.80;13.00;;;27.20;99.90;;;;;;4839846;29;20104;-76
2022/07/24 09:05:58;;;;;;;15.52;12.25;;;27.20;99.90;;;;;;4839401;29;20362;-72
2022/07/24 09:08:24;;;;;;;20.02;13.50;;;27.30;98.60;;;;;;4838115;29;20033;-75
2022/07/24 09:11:04;;;;;;;17.10;12.88;;;27.50;98.60;;;;;;4838297;29;20077;-74
2022/07/24 09:16:24;;;;;;;18.90;12.98;;;28.00;98.80;;;;;;4840083;29;20048;-74
2022/07/24 09:19:05;;;;;;;18.20;12.93;;;28.20;96.90;;;;;;4837669;29;20038;-75
2022/07/24 09:21:35;;;;;;;19.08;12.40;;;28.10;96.70;;;;;;4838191;29;20029;-77
2022/07/24 09:24:12;;;;;;;20.02;12.98;;;28.10;95.90;;;;;;4838938;29;20113;-76
2022/07/24 09:26:50;;;;;;;19.98;12.85;;;27.90;96.40;;;;;;4837589;29;20054;-76
2022/07/24 09:29:18;;;;;;;20.02;12.38;;;27.70;95.60;;;;;;4838310;29;20033;-75
2022/07/24 09:31:55;;;;;;;18.58;12.93;;;27.70;96.10;;;;;;4821204;29;20042;-74
2022/07/24 09:34:21;;;;;;;22.63;13.20;;;27.70;96.90;;;;;;4837368;29;20031;-78
2022/07/24 09:37:02;;;;;;;16.90;13.73;;;27.70;96.50;;;;;;4838038;29;20070;-73
2022/07/24 09:39:32;;;;;;;17.50;13.60;;;27.90;98.60;;;;;;4837218;29;20042;-74
2022/07/24 09:41:58;;;;;;;19.85;13.32;;;27.90;96.10;;;;;;4838060;29;20038;-75
2022/07/24 09:44:25;;;;;;;15.88;12.27;;;27.80;96.70;;;;;;4837868;29;20044;-76
2022/07/24 09:47:00;;;;;;;18.23;13.48;;;28.00;95.10;;;;;;4838895;29;20034;-74
2022/07/24 09:49:27;;;;;;;18.98;12.77;;;28.40;97.00;;;;;;4837068;29;20102;-77
2022/07/24 09:52:12;;;;;;;17.02;12.60;;;28.90;94.90;;;;;;4838534;29;20501;-74
2022/07/24 09:54:41;;;;;;;18.00;13.18;;;29.10;94.00;;;;;;4830717;29;20038;-75
2022/07/24 09:57:23;;;;;;;25.98;12.45;;;29.00;93.30;;;;;;4837046;29;20657;-77
2022/07/24 09:59:52;;;;;;;17.00;12.30;;;29.10;93.10;;;;;;4838395;29;20484;-74
2022/07/24 10:02:21;;;;;;;15.43;12.35;;;28.90;95.00;;;;;;4837253;29;20363;-74
2022/07/24 10:04:48;;;;;;;17.52;12.05;;;28.90;92.80;;;;;;4833326;29;20077;-76
2022/07/24 10:07:17;;;;;;;17.27;12.20;;;28.90;92.00;;;;;;4835820;29;20130;-76
2022/07/24 10:09:47;;;;;;;16.97;12.10;;;29.00;92.70;;;;;;4837077;29;20037;-73
2022/07/24 10:12:18;;;;;;;14.83;12.03;;;29.20;91.70;;;;;;4837358;29;20045;-75
2022/07/24 10:14:45;;;;;;;16.05;12.75;;;29.30;92.10;;;;;;4835768;29;20034;-77
2022/07/24 10:17:12;;;;;;;18.13;11.98;;;29.20;90.10;;;;;;4837902;29;20044;-76
2022/07/24 10:19:49;;;;;;;20.50;12.90;;;29.30;92.30;;;;;;4838334;29;20030;-75
2022/07/24 10:22:23;;;;;;;15.15;12.18;;;29.30;90.80;;;;;;4838504;29;20074;-76
2022/07/24 10:25:04;;;;;;;18.15;12.43;;;29.20;90.70;;;;;;4838366;29;20120;-76
2022/07/24 10:27:39;;;;;;;18.15;11.90;;;29.20;91.00;;;;;;4839235;29;20485;-77
2022/07/24 10:30:07;;;;;;;16.25;12.27;;;29.10;87.90;;;;;;4820796;29;20042;-78
2022/07/24 10:32:35;;;;;;;16.65;11.60;;;29.10;88.50;;;;;;4819991;29;20034;-76
2022/07/24 10:35:00;;;;;;;16.95;11.77;;;29.10;88.00;;;;;;4822587;29;20030;-77
2022/07/24 10:37:56;;;;;;;15.93;12.38;;;28.90;88.40;;;;;;4838532;29;20038;-77
2022/07/24 10:41:01;;;;;;;15.02;11.90;;;29.10;90.10;;;;;;4838524;29;20042;-75
2022/07/24 10:43:27;;;;;;;15.50;11.82;;;29.30;86.90;;;;;;4763117;30;20555;-77
2022/07/24 10:45:56;;;;;;;15.10;11.93;;;29.30;87.00;;;;;;4824090;29;20042;-75
2022/07/24 10:48:22;;;;;;;18.60;12.05;;;29.50;84.50;;;;;;4838749;29;20038;-76
2022/07/24 10:51:16;;;;;;;16.50;11.90;;;29.70;88.70;;;;;;4837542;29;20137;-75
2022/07/24 10:53:51;;;;;;;18.98;11.77;;;30.10;86.40;;;;;;4837756;29;20029;-75
2022/07/24 10:56:22;;;;;;;17.33;12.77;;;30.40;82.60;;;;;;4838160;29;20034;-75
2022/07/24 10:58:59;;;;;;;16.30;12.00;;;30.30;79.00;;;;;;4837978;29;20034;-75
2022/07/24 11:01:45;;;;;;;16.10;11.60;;;30.50;81.30;;;;;;4838689;29;20030;-76
2022/07/24 11:04:22;;;;;;;16.27;12.02;;;30.60;81.00;;;;;;4838575;29;20069;-76
2022/07/24 11:07:08;;;;;;;16.33;12.65;;;30.80;80.30;;;;;;4837776;29;20064;-76
2022/07/24 11:09:53;;;;;;;17.05;12.95;;;30.60;77.70;;;;;;4837738;29;20042;-76
2022/07/24 11:12:30;;;;;;;18.77;13.27;;;30.20;81.60;;;;;;4840730;29;20098;-76
2022/07/24 11:17:48;;;;;;;16.23;12.70;;;29.10;83.00;;;;;;4841464;29;20113;-75
2022/07/24 11:20:18;;;;;;;16.75;13.35;;;28.80;82.60;;;;;;4842160;29;20053;-75
2022/07/24 11:22:53;;;;;;;18.85;13.13;;;28.60;80.70;;;;;;4824637;29;20444;-75
2022/07/24 11:25:27;;;;;;;19.50;13.63;;;28.70;81.40;;;;;;4841060;29;20620;-76
2022/07/24 11:27:57;;;;;;;20.35;12.57;;;29.10;85.00;;;;;;4806735;29;20481;-75
2022/07/24 11:30:25;;;;;;;20.75;13.57;;;29.70;79.70;;;;;;4823135;29;20378;-76
2022/07/24 11:32:50;;;;;;;17.40;13.02;;;30.20;78.60;;;;;;4822563;29;20031;-74
2022/07/24 11:35:17;;;;;;;17.58;12.73;;;30.50;74.80;;;;;;4823510;29;20044;-74
2022/07/24 11:37:43;;;;;;;18.42;12.98;;;30.60;74.50;;;;;;4822501;29;20045;-75
2022/07/24 11:40:14;;;;;;;18.05;13.20;;;30.70;76.60;;;;;;4824101;29;20046;-75
2022/07/24 11:42:40;;;;;;;15.38;12.23;;;31.20;74.80;;;;;;4840620;29;20073;-73
2022/07/24 11:45:06;;;;;;;20.80;12.73;;;31.20;72.00;;;;;;4841672;29;20425;-75
2022/07/24 11:47:32;;;;;;;16.08;12.07;;;30.80;70.80;;;;;;4840969;29;20034;-76
2022/07/24 11:50:00;;;;;;;19.20;11.32;;;30.70;71.80;;;;;;4841417;29;20070;-75
2022/07/24 11:52:44;;;;;;;16.27;12.13;;;30.70;69.10;;;;;;4841694;29;20044;-76
2022/07/24 11:55:16;;;;;;;14.43;11.27;;;30.70;75.10;;;;;;4841284;29;20045;-75
2022/07/24 11:57:47;;;;;;;17.77;11.63;;;30.90;68.60;;;;;;4840071;29;20034;-76
2022/07/24 12:00:15;;;;;;;13.30;10.98;;;31.20;70.60;;;;;;4841488;29;20049;-75
2022/07/24 12:02:46;;;;;;;15.05;10.57;;;31.50;69.60;;;;;;4840715;29;20045;-76
2022/07/24 12:05:12;;;;;;;15.63;12.02;;;31.50;62.90;;;;;;4841296;29;20030;-74
2022/07/24 12:07:38;;;;;;;14.13;11.00;;;31.50;63.10;;;;;;4840529;29;20037;-76
2022/07/24 12:10:04;;;;;;;14.60;11.10;;;31.60;67.80;;;;;;4840472;29;20066;-75
2022/07/24 12:12:37;;;;;;;15.18;11.45;;;31.60;66.20;;;;;;4840879;29;20481;-77
2022/07/24 12:15:12;;;;;;;13.85;11.07;;;31.70;65.40;;;;;;4841197;29;20030;-75
2022/07/24 12:18:05;;;;;;;15.43;11.70;;;32.00;64.50;;;;;;4840362;29;20116;-75
2022/07/24 12:20:39;;;;;;;17.48;11.50;;;31.80;65.70;;;;;;4841011;29;20153;-78
2022/07/24 12:23:10;;;;;;;15.80;12.48;;;31.50;64.10;;;;;;4840620;29;20605;-76
2022/07/24 12:25:37;;;;;;;12.77;11.30;;;31.50;66.90;;;;;;4827456;29;20145;-76
2022/07/24 12:28:14;;;;;;;17.98;12.15;;;31.60;66.10;;;;;;4838639;29;20034;-76
2022/07/24 12:30:45;;;;;;;16.42;11.55;;;31.60;65.20;;;;;;4825003;29;20094;-75
2022/07/24 12:33:11;;;;;;;14.77;11.85;;;31.90;65.40;;;;;;4823376;29;20042;-75
2022/07/24 12:35:56;;;;;;;14.27;11.45;;;31.90;66.50;;;;;;4837369;29;20272;-74